sensor_id;sensor_type;location;lat;lon;timestamp;temperature;humidity
11140;DHT22;5624;49.388;11.350;2023-09-18T00:02:07;18.30;82.50
11140;DHT22;5624;49.388;11.350;2023-09-18T00:04:32;18.20;82.90
11140;DHT22;5624;49.388;11.350;2023-09-18T00:06:59;18.20;82.10
11140;DHT22;5624;49.388;11.350;2023-09-18T00:09:24;18.30;81.60
11140;DHT22;5624;49.388;11.350;2023-09-18T00:11:50;18.20;81.30
11140;DHT22;5624;49.388;11.350;2023-09-18T00:14:15;18.20;81.20
11140;DHT22;5624;49.388;11.350;2023-09-18T00:16:41;18.20;81.00
11140;DHT22;5624;49.388;11.350;2023-09-18T00:19:06;18.20;80.80
11140;DHT22;5624;49.388;11.350;2023-09-18T00:21:36;18.10;81.00
11140;DHT22;5624;49.388;11.350;2023-09-18T00:24:02;18.20;80.50
11140;DHT22;5624;49.388;11.350;2023-09-18T00:26:28;18.20;80.20
11140;DHT22;5624;49.388;11.350;2023-09-18T00:28:53;18.30;80.20
11140;DHT22;5624;49.388;11.350;2023-09-18T00:31:19;18.30;80.30
11140;DHT22;5624;49.388;11.350;2023-09-18T00:33:44;18.30;80.40
11140;DHT22;5624;49.388;11.350;2023-09-18T00:36:10;18.30;80.50
11140;DHT22;5624;49.388;11.350;2023-09-18T00:38:36;18.30;80.60
11140;DHT22;5624;49.388;11.350;2023-09-18T00:41:01;18.30;81.30
11140;DHT22;5624;49.388;11.350;2023-09-18T00:43:27;18.40;81.20
11140;DHT22;5624;49.388;11.350;2023-09-18T00:45:53;18.40;81.20
11140;DHT22;5624;49.388;11.350;2023-09-18T00:48:19;18.40;81.30
11140;DHT22;5624;49.388;11.350;2023-09-18T00:50:46;18.40;81.60
11140;DHT22;5624;49.388;11.350;2023-09-18T00:53:22;18.40;81.80
11140;DHT22;5624;49.388;11.350;2023-09-18T00:55:53;18.50;81.70
11140;DHT22;5624;49.388;11.350;2023-09-18T00:58:21;18.50;81.80
11140;DHT22;5624;49.388;11.350;2023-09-18T01:00:47;18.60;81.40
11140;DHT22;5624;49.388;11.350;2023-09-18T01:03:16;18.60;81.50
11140;DHT22;5624;49.388;11.350;2023-09-18T01:05:44;18.50;82.00
11140;DHT22;5624;49.388;11.350;2023-09-18T01:08:10;18.50;82.00
11140;DHT22;5624;49.388;11.350;2023-09-18T01:16:41;18.50;82.90
11140;DHT22;5624;49.388;11.350;2023-09-18T01:19:10;18.50;83.50
11140;DHT22;5624;49.388;11.350;2023-09-18T01:21:36;18.50;83.40
11140;DHT22;5624;49.388;11.350;2023-09-18T01:24:02;18.50;83.40
11140;DHT22;5624;49.388;11.350;2023-09-18T01:26:27;18.50;83.60
11140;DHT22;5624;49.388;11.350;2023-09-18T01:28:55;18.50;83.60
11140;DHT22;5624;49.388;11.350;2023-09-18T01:31:21;18.60;83.40
11140;DHT22;5624;49.388;11.350;2023-09-18T01:33:47;18.60;83.80
11140;DHT22;5624;49.388;11.350;2023-09-18T01:36:14;18.60;83.80
11140;DHT22;5624;49.388;11.350;2023-09-18T01:38:40;18.60;83.80
11140;DHT22;5624;49.388;11.350;2023-09-18T01:41:06;18.50;84.00
11140;DHT22;5624;49.388;11.350;2023-09-18T01:43:32;18.50;84.30
11140;DHT22;5624;49.388;11.350;2023-09-18T01:45:58;18.50;84.60
11140;DHT22;5624;49.388;11.350;2023-09-18T01:48:23;18.50;84.40
11140;DHT22;5624;49.388;11.350;2023-09-18T01:50:49;18.40;84.90
11140;DHT22;5624;49.388;11.350;2023-09-18T01:53:14;18.50;84.80
11140;DHT22;5624;49.388;11.350;2023-09-18T01:55:40;18.50;85.00
11140;DHT22;5624;49.388;11.350;2023-09-18T01:58:05;18.50;85.10
11140;DHT22;5624;49.388;11.350;2023-09-18T02:00:31;18.40;85.30
11140;DHT22;5624;49.388;11.350;2023-09-18T02:02:56;18.40;85.50
11140;DHT22;5624;49.388;11.350;2023-09-18T02:05:22;18.40;85.70
11140;DHT22;5624;49.388;11.350;2023-09-18T02:07:48;18.40;85.60
11140;DHT22;5624;49.388;11.350;2023-09-18T02:10:13;18.40;85.60
11140;DHT22;5624;49.388;11.350;2023-09-18T02:12:39;18.40;85.70
11140;DHT22;5624;49.388;11.350;2023-09-18T02:15:06;18.40;86.00
11140;DHT22;5624;49.388;11.350;2023-09-18T02:17:32;18.30;86.30
11140;DHT22;5624;49.388;11.350;2023-09-18T02:19:58;18.30;86.40
11140;DHT22;5624;49.388;11.350;2023-09-18T02:22:25;18.30;86.60
11140;DHT22;5624;49.388;11.350;2023-09-18T02:24:50;18.30;86.50
11140;DHT22;5624;49.388;11.350;2023-09-18T02:27:16;18.20;87.00
11140;DHT22;5624;49.388;11.350;2023-09-18T02:29:44;18.20;87.00
11140;DHT22;5624;49.388;11.350;2023-09-18T02:32:09;18.20;87.40
11140;DHT22;5624;49.388;11.350;2023-09-18T02:34:35;18.10;87.50
11140;DHT22;5624;49.388;11.350;2023-09-18T02:37:01;18.10;87.60
11140;DHT22;5624;49.388;11.350;2023-09-18T02:39:26;18.10;88.10
11140;DHT22;5624;49.388;11.350;2023-09-18T02:41:52;18.10;88.00
11140;DHT22;5624;49.388;11.350;2023-09-18T02:44:17;18.10;88.10
11140;DHT22;5624;49.388;11.350;2023-09-18T02:46:43;18.00;88.50
11140;DHT22;5624;49.388;11.350;2023-09-18T02:49:09;18.00;88.60
11140;DHT22;5624;49.388;11.350;2023-09-18T02:51:34;17.90;88.90
11140;DHT22;5624;49.388;11.350;2023-09-18T02:53:59;18.00;88.80
11140;DHT22;5624;49.388;11.350;2023-09-18T02:56:25;17.90;89.10
11140;DHT22;5624;49.388;11.350;2023-09-18T02:58:51;17.90;89.10
11140;DHT22;5624;49.388;11.350;2023-09-18T03:01:16;17.90;89.00
11140;DHT22;5624;49.388;11.350;2023-09-18T03:03:42;17.90;89.00
11140;DHT22;5624;49.388;11.350;2023-09-18T03:06:08;18.00;89.00
11140;DHT22;5624;49.388;11.350;2023-09-18T03:08:34;17.90;89.00
11140;DHT22;5624;49.388;11.350;2023-09-18T03:11:00;17.90;89.10
11140;DHT22;5624;49.388;11.350;2023-09-18T03:13:30;17.90;89.10
11140;DHT22;5624;49.388;11.350;2023-09-18T03:15:56;17.90;89.30
11140;DHT22;5624;49.388;11.350;2023-09-18T03:18:21;17.90;89.20
11140;DHT22;5624;49.388;11.350;2023-09-18T03:20:47;17.90;89.20
11140;DHT22;5624;49.388;11.350;2023-09-18T03:23:13;17.90;89.30
11140;DHT22;5624;49.388;11.350;2023-09-18T03:25:39;17.90;89.60
11140;DHT22;5624;49.388;11.350;2023-09-18T03:28:05;17.90;89.20
11140;DHT22;5624;49.388;11.350;2023-09-18T03:30:31;17.90;89.40
11140;DHT22;5624;49.388;11.350;2023-09-18T03:32:57;17.80;89.80
11140;DHT22;5624;49.388;11.350;2023-09-18T03:35:22;17.80;89.50
11140;DHT22;5624;49.388;11.350;2023-09-18T03:37:49;17.80;89.50
11140;DHT22;5624;49.388;11.350;2023-09-18T03:40:16;17.80;89.50
11140;DHT22;5624;49.388;11.350;2023-09-18T03:42:42;17.80;89.80
11140;DHT22;5624;49.388;11.350;2023-09-18T03:45:08;17.70;90.10
11140;DHT22;5624;49.388;11.350;2023-09-18T03:47:35;17.60;90.20
11140;DHT22;5624;49.388;11.350;2023-09-18T03:50:02;17.60;90.50
11140;DHT22;5624;49.388;11.350;2023-09-18T03:52:27;17.60;90.40
11140;DHT22;5624;49.388;11.350;2023-09-18T03:54:53;17.70;90.50
11140;DHT22;5624;49.388;11.350;2023-09-18T03:57:19;17.60;90.30
11140;DHT22;5624;49.388;11.350;2023-09-18T03:59:45;17.70;90.20
11140;DHT22;5624;49.388;11.350;2023-09-18T04:02:10;17.60;90.40
11140;DHT22;5624;49.388;11.350;2023-09-18T04:04:36;17.50;90.70
11140;DHT22;5624;49.388;11.350;2023-09-18T04:07:05;17.50;91.00
11140;DHT22;5624;49.388;11.350;2023-09-18T04:09:31;17.40;91.40
11140;DHT22;5624;49.388;11.350;2023-09-18T04:11:57;17.30;92.10
11140;DHT22;5624;49.388;11.350;2023-09-18T04:14:22;17.30;92.30
11140;DHT22;5624;49.388;11.350;2023-09-18T04:16:48;17.20;92.60
11140;DHT22;5624;49.388;11.350;2023-09-18T04:19:13;17.20;92.40
11140;DHT22;5624;49.388;11.350;2023-09-18T04:21:39;17.20;92.90
11140;DHT22;5624;49.388;11.350;2023-09-18T04:24:05;17.10;93.10
11140;DHT22;5624;49.388;11.350;2023-09-18T04:26:30;17.20;93.30
11140;DHT22;5624;49.388;11.350;2023-09-18T04:29:00;17.10;93.40
11140;DHT22;5624;49.388;11.350;2023-09-18T04:31:26;17.20;93.20
11140;DHT22;5624;49.388;11.350;2023-09-18T04:33:53;17.20;92.90
11140;DHT22;5624;49.388;11.350;2023-09-18T04:36:18;17.30;92.70
11140;DHT22;5624;49.388;11.350;2023-09-18T04:38:44;17.40;92.00
11140;DHT22;5624;49.388;11.350;2023-09-18T04:41:10;17.40;92.10
11140;DHT22;5624;49.388;11.350;2023-09-18T04:43:40;17.40;91.90
11140;DHT22;5624;49.388;11.350;2023-09-18T04:46:06;17.40;91.70
11140;DHT22;5624;49.388;11.350;2023-09-18T04:48:32;17.50;91.60
11140;DHT22;5624;49.388;11.350;2023-09-18T04:50:58;17.50;91.50
11140;DHT22;5624;49.388;11.350;2023-09-18T04:53:24;17.50;91.60
11140;DHT22;5624;49.388;11.350;2023-09-18T04:55:50;17.50;91.10
11140;DHT22;5624;49.388;11.350;2023-09-18T04:58:17;17.60;90.80
11140;DHT22;5624;49.388;11.350;2023-09-18T05:00:42;17.60;90.60
11140;DHT22;5624;49.388;11.350;2023-09-18T05:03:09;17.60;90.60
11140;DHT22;5624;49.388;11.350;2023-09-18T05:05:35;17.60;90.50
11140;DHT22;5624;49.388;11.350;2023-09-18T05:08:02;17.60;91.00
11140;DHT22;5624;49.388;11.350;2023-09-18T05:10:33;17.50;91.80
11140;DHT22;5624;49.388;11.350;2023-09-18T05:12:59;17.60;91.70
11140;DHT22;5624;49.388;11.350;2023-09-18T05:15:25;17.60;91.30
11140;DHT22;5624;49.388;11.350;2023-09-18T05:17:52;17.70;90.80
11140;DHT22;5624;49.388;11.350;2023-09-18T05:20:21;17.80;90.70
11140;DHT22;5624;49.388;11.350;2023-09-18T05:22:50;17.80;89.90
11140;DHT22;5624;49.388;11.350;2023-09-18T05:25:18;17.90;90.30
11140;DHT22;5624;49.388;11.350;2023-09-18T05:27:44;18.00;90.40
11140;DHT22;5624;49.388;11.350;2023-09-18T05:30:11;18.10;88.90
11140;DHT22;5624;49.388;11.350;2023-09-18T05:32:37;18.20;89.10
11140;DHT22;5624;49.388;11.350;2023-09-18T05:35:03;18.30;88.10
11140;DHT22;5624;49.388;11.350;2023-09-18T05:37:32;18.40;87.50
11140;DHT22;5624;49.388;11.350;2023-09-18T05:39:57;18.50;87.40
11140;DHT22;5624;49.388;11.350;2023-09-18T05:42:23;18.50;86.50
11140;DHT22;5624;49.388;11.350;2023-09-18T05:44:48;18.70;85.80
11140;DHT22;5624;49.388;11.350;2023-09-18T05:47:14;18.80;85.10
11140;DHT22;5624;49.388;11.350;2023-09-18T05:49:39;18.80;84.80
11140;DHT22;5624;49.388;11.350;2023-09-18T05:52:05;18.80;85.90
11140;DHT22;5624;49.388;11.350;2023-09-18T05:54:31;18.80;85.40
11140;DHT22;5624;49.388;11.350;2023-09-18T05:56:56;18.90;85.10
11140;DHT22;5624;49.388;11.350;2023-09-18T05:59:22;19.00;85.60
11140;DHT22;5624;49.388;11.350;2023-09-18T06:01:47;19.00;86.60
11140;DHT22;5624;49.388;11.350;2023-09-18T06:04:14;19.10;85.90
11140;DHT22;5624;49.388;11.350;2023-09-18T06:06:42;19.20;85.30
11140;DHT22;5624;49.388;11.350;2023-09-18T06:09:07;19.20;86.40
11140;DHT22;5624;49.388;11.350;2023-09-18T06:11:33;19.30;86.80
11140;DHT22;5624;49.388;11.350;2023-09-18T06:13:59;19.40;83.90
11140;DHT22;5624;49.388;11.350;2023-09-18T06:16:25;19.60;83.10
11140;DHT22;5624;49.388;11.350;2023-09-18T06:18:50;19.90;80.70
11140;DHT22;5624;49.388;11.350;2023-09-18T06:21:16;20.20;80.80
11140;DHT22;5624;49.388;11.350;2023-09-18T06:23:41;20.40;78.80
11140;DHT22;5624;49.388;11.350;2023-09-18T06:26:07;20.50;78.10
11140;DHT22;5624;49.388;11.350;2023-09-18T06:28:32;20.50;78.20
11140;DHT22;5624;49.388;11.350;2023-09-18T06:30:58;20.50;79.00
11140;DHT22;5624;49.388;11.350;2023-09-18T06:33:23;20.40;78.00
11140;DHT22;5624;49.388;11.350;2023-09-18T06:35:49;20.50;79.00
11140;DHT22;5624;49.388;11.350;2023-09-18T06:38:16;20.70;79.10
11140;DHT22;5624;49.388;11.350;2023-09-18T06:40:42;20.70;77.50
11140;DHT22;5624;49.388;11.350;2023-09-18T06:43:07;20.80;78.00
11140;DHT22;5624;49.388;11.350;2023-09-18T06:45:33;21.20;75.20
11140;DHT22;5624;49.388;11.350;2023-09-18T06:47:59;21.70;75.70
11140;DHT22;5624;49.388;11.350;2023-09-18T06:50:25;22.30;73.90
11140;DHT22;5624;49.388;11.350;2023-09-18T06:52:51;22.50;71.50
11140;DHT22;5624;49.388;11.350;2023-09-18T06:55:17;22.60;71.70
11140;DHT22;5624;49.388;11.350;2023-09-18T06:57:43;23.00;70.70
11140;DHT22;5624;49.388;11.350;2023-09-18T07:00:09;23.40;68.80
11140;DHT22;5624;49.388;11.350;2023-09-18T07:02:34;24.10;66.30
11140;DHT22;5624;49.388;11.350;2023-09-18T07:05:00;24.80;65.90
11140;DHT22;5624;49.388;11.350;2023-09-18T07:07:25;25.60;62.50
11140;DHT22;5624;49.388;11.350;2023-09-18T07:09:52;26.00;59.90
11140;DHT22;5624;49.388;11.350;2023-09-18T07:12:17;26.10;58.50
11140;DHT22;5624;49.388;11.350;2023-09-18T07:14:47;25.50;57.50
11140;DHT22;5624;49.388;11.350;2023-09-18T07:17:12;25.00;59.40
11140;DHT22;5624;49.388;11.350;2023-09-18T07:19:38;24.90;61.00
11140;DHT22;5624;49.388;11.350;2023-09-18T07:22:04;25.10;59.50
11140;DHT22;5624;49.388;11.350;2023-09-18T07:24:29;25.20;60.40
11140;DHT22;5624;49.388;11.350;2023-09-18T07:26:55;25.60;62.70
11140;DHT22;5624;49.388;11.350;2023-09-18T07:29:22;26.00;59.20
11140;DHT22;5624;49.388;11.350;2023-09-18T07:31:50;26.40;58.50
11140;DHT22;5624;49.388;11.350;2023-09-18T07:34:16;26.70;54.70
11140;DHT22;5624;49.388;11.350;2023-09-18T07:36:43;26.10;55.40
11140;DHT22;5624;49.388;11.350;2023-09-18T07:39:09;25.90;57.80
11140;DHT22;5624;49.388;11.350;2023-09-18T07:41:37;26.60;56.10
11140;DHT22;5624;49.388;11.350;2023-09-18T07:44:03;26.50;55.60
11140;DHT22;5624;49.388;11.350;2023-09-18T07:46:28;26.00;55.80
11140;DHT22;5624;49.388;11.350;2023-09-18T07:48:54;26.50;55.50
11140;DHT22;5624;49.388;11.350;2023-09-18T07:51:20;26.70;55.90
11140;DHT22;5624;49.388;11.350;2023-09-18T07:53:46;26.70;57.30
11140;DHT22;5624;49.388;11.350;2023-09-18T07:56:11;27.40;57.70
11140;DHT22;5624;49.388;11.350;2023-09-18T07:58:38;27.70;52.50
11140;DHT22;5624;49.388;11.350;2023-09-18T08:01:04;28.20;51.60
11140;DHT22;5624;49.388;11.350;2023-09-18T08:03:31;28.50;51.70
11140;DHT22;5624;49.388;11.350;2023-09-18T08:05:57;28.90;51.50
11140;DHT22;5624;49.388;11.350;2023-09-18T08:08:23;29.20;50.00
11140;DHT22;5624;49.388;11.350;2023-09-18T08:10:52;29.20;49.70
11140;DHT22;5624;49.388;11.350;2023-09-18T08:13:18;29.20;50.50
11140;DHT22;5624;49.388;11.350;2023-09-18T08:15:45;29.30;48.10
11140;DHT22;5624;49.388;11.350;2023-09-18T08:18:12;29.20;50.60
11140;DHT22;5624;49.388;11.350;2023-09-18T08:20:44;29.10;50.00
11140;DHT22;5624;49.388;11.350;2023-09-18T08:23:10;29.70;51.20
11140;DHT22;5624;49.388;11.350;2023-09-18T08:25:36;29.80;47.60
11140;DHT22;5624;49.388;11.350;2023-09-18T08:28:02;30.20;47.40
11140;DHT22;5624;49.388;11.350;2023-09-18T08:30:30;30.40;46.40
11140;DHT22;5624;49.388;11.350;2023-09-18T08:32:55;30.60;45.50
11140;DHT22;5624;49.388;11.350;2023-09-18T08:35:21;30.60;46.20
11140;DHT22;5624;49.388;11.350;2023-09-18T08:37:48;30.90;44.40
11140;DHT22;5624;49.388;11.350;2023-09-18T08:40:13;30.70;46.30
11140;DHT22;5624;49.388;11.350;2023-09-18T08:42:45;31.10;46.60
11140;DHT22;5624;49.388;11.350;2023-09-18T08:45:25;31.10;47.10
11140;DHT22;5624;49.388;11.350;2023-09-18T08:47:51;31.20;44.80
11140;DHT22;5624;49.388;11.350;2023-09-18T08:50:18;31.50;42.40
11140;DHT22;5624;49.388;11.350;2023-09-18T08:52:45;31.60;41.10
11140;DHT22;5624;49.388;11.350;2023-09-18T08:55:12;31.90;44.60
11140;DHT22;5624;49.388;11.350;2023-09-18T08:57:40;31.80;40.70
11140;DHT22;5624;49.388;11.350;2023-09-18T09:00:07;31.50;43.40
11140;DHT22;5624;49.388;11.350;2023-09-18T09:02:35;31.50;46.70
11140;DHT22;5624;49.388;11.350;2023-09-18T09:05:00;31.70;45.10
11140;DHT22;5624;49.388;11.350;2023-09-18T09:07:26;31.80;43.30
11140;DHT22;5624;49.388;11.350;2023-09-18T09:09:54;31.70;43.80
11140;DHT22;5624;49.388;11.350;2023-09-18T09:12:52;31.90;44.40
11140;DHT22;5624;49.388;11.350;2023-09-18T09:15:22;32.00;44.40
11140;DHT22;5624;49.388;11.350;2023-09-18T09:17:52;32.10;45.60
11140;DHT22;5624;49.388;11.350;2023-09-18T09:20:18;32.40;43.00
11140;DHT22;5624;49.388;11.350;2023-09-18T09:22:46;32.50;42.70
11140;DHT22;5624;49.388;11.350;2023-09-18T09:27:47;32.40;41.20
11140;DHT22;5624;49.388;11.350;2023-09-18T09:30:19;31.80;38.80
11140;DHT22;5624;49.388;11.350;2023-09-18T09:32:50;31.70;40.80
11140;DHT22;5624;49.388;11.350;2023-09-18T09:35:30;32.10;43.60
11140;DHT22;5624;49.388;11.350;2023-09-18T09:40:27;32.80;41.50
11140;DHT22;5624;49.388;11.350;2023-09-18T09:42:55;32.40;39.20
11140;DHT22;5624;49.388;11.350;2023-09-18T09:45:26;32.20;41.70
11140;DHT22;5624;49.388;11.350;2023-09-18T09:47:54;32.40;39.60
11140;DHT22;5624;49.388;11.350;2023-09-18T09:50:20;32.50;41.30
11140;DHT22;5624;49.388;11.350;2023-09-18T09:52:48;32.90;39.70
11140;DHT22;5624;49.388;11.350;2023-09-18T09:55:23;33.10;36.80
11140;DHT22;5624;49.388;11.350;2023-09-18T09:58:01;32.60;38.30
11140;DHT22;5624;49.388;11.350;2023-09-18T10:03:16;31.50;41.50
11140;DHT22;5624;49.388;11.350;2023-09-18T10:05:46;31.40;41.60
11140;DHT22;5624;49.388;11.350;2023-09-18T10:08:16;30.90;41.80
11140;DHT22;5624;49.388;11.350;2023-09-18T10:10:53;30.70;42.90
11140;DHT22;5624;49.388;11.350;2023-09-18T10:13:25;30.10;43.80
11140;DHT22;5624;49.388;11.350;2023-09-18T10:15:53;29.50;44.20
11140;DHT22;5624;49.388;11.350;2023-09-18T10:18:28;29.50;46.20
11140;DHT22;5624;49.388;11.350;2023-09-18T10:21:09;29.40;45.50
11140;DHT22;5624;49.388;11.350;2023-09-18T10:26:33;29.30;46.80
11140;DHT22;5624;49.388;11.350;2023-09-18T10:29:04;29.50;47.90
11140;DHT22;5624;49.388;11.350;2023-09-18T10:31:33;30.10;44.90
11140;DHT22;5624;49.388;11.350;2023-09-18T10:34:01;30.80;45.40
11140;DHT22;5624;49.388;11.350;2023-09-18T10:36:28;31.30;43.20
11140;DHT22;5624;49.388;11.350;2023-09-18T10:38:55;31.40;43.90
11140;DHT22;5624;49.388;11.350;2023-09-18T10:41:22;31.20;42.60
11140;DHT22;5624;49.388;11.350;2023-09-18T10:43:53;30.90;44.20
11140;DHT22;5624;49.388;11.350;2023-09-18T10:46:19;30.40;43.60
11140;DHT22;5624;49.388;11.350;2023-09-18T10:48:46;30.20;44.50
11140;DHT22;5624;49.388;11.350;2023-09-18T10:51:12;29.90;44.70
11140;DHT22;5624;49.388;11.350;2023-09-18T10:53:40;29.50;44.90
11140;DHT22;5624;49.388;11.350;2023-09-18T10:56:05;29.10;46.70
11140;DHT22;5624;49.388;11.350;2023-09-18T10:58:32;28.70;46.70
11140;DHT22;5624;49.388;11.350;2023-09-18T11:01:02;28.60;46.10
11140;DHT22;5624;49.388;11.350;2023-09-18T11:03:28;28.30;48.90
11140;DHT22;5624;49.388;11.350;2023-09-18T11:06:07;28.10;47.40
11140;DHT22;5624;49.388;11.350;2023-09-18T11:08:45;28.00;47.10
11140;DHT22;5624;49.388;11.350;2023-09-18T11:11:12;27.80;47.90
11140;DHT22;5624;49.388;11.350;2023-09-18T11:13:45;27.70;48.70
11140;DHT22;5624;49.388;11.350;2023-09-18T11:21:29;27.50;49.50
11140;DHT22;5624;49.388;11.350;2023-09-18T11:24:02;27.40;49.80
11140;DHT22;5624;49.388;11.350;2023-09-18T11:26:35;27.50;49.00
11140;DHT22;5624;49.388;11.350;2023-09-18T11:29:01;27.30;49.90
11140;DHT22;5624;49.388;11.350;2023-09-18T11:31:56;27.10;50.00
11140;DHT22;5624;49.388;11.350;2023-09-18T11:34:24;26.70;49.90
11140;DHT22;5624;49.388;11.350;2023-09-18T11:36:57;26.70;51.10
11140;DHT22;5624;49.388;11.350;2023-09-18T11:39:40;26.70;51.40
11140;DHT22;5624;49.388;11.350;2023-09-18T11:42:18;27.00;50.60
11140;DHT22;5624;49.388;11.350;2023-09-18T11:44:44;27.20;49.60
11140;DHT22;5624;49.388;11.350;2023-09-18T11:47:17;27.50;50.50
11140;DHT22;5624;49.388;11.350;2023-09-18T11:49:54;27.20;50.00
11140;DHT22;5624;49.388;11.350;2023-09-18T11:52:26;27.10;49.90
11140;DHT22;5624;49.388;11.350;2023-09-18T11:54:53;26.90;50.30
11140;DHT22;5624;49.388;11.350;2023-09-18T11:57:20;26.70;52.20
11140;DHT22;5624;49.388;11.350;2023-09-18T11:59:46;26.60;50.40
11140;DHT22;5624;49.388;11.350;2023-09-18T12:02:26;26.30;51.40
11140;DHT22;5624;49.388;11.350;2023-09-18T12:04:56;25.90;52.20
11140;DHT22;5624;49.388;11.350;2023-09-18T12:07:22;25.70;53.00
11140;DHT22;5624;49.388;11.350;2023-09-18T12:09:49;25.40;52.90
11140;DHT22;5624;49.388;11.350;2023-09-18T12:12:15;25.10;53.60
11140;DHT22;5624;49.388;11.350;2023-09-18T12:14:41;24.90;55.20
11140;DHT22;5624;49.388;11.350;2023-09-18T12:17:08;24.70;56.10
11140;DHT22;5624;49.388;11.350;2023-09-18T12:19:34;24.60;57.80
11140;DHT22;5624;49.388;11.350;2023-09-18T12:22:01;24.40;58.50
11140;DHT22;5624;49.388;11.350;2023-09-18T12:24:27;24.10;60.10
11140;DHT22;5624;49.388;11.350;2023-09-18T12:26:54;23.80;60.60
11140;DHT22;5624;49.388;11.350;2023-09-18T12:29:20;23.70;62.80
11140;DHT22;5624;49.388;11.350;2023-09-18T12:31:46;23.50;64.30
11140;DHT22;5624;49.388;11.350;2023-09-18T12:34:17;23.30;67.30
11140;DHT22;5624;49.388;11.350;2023-09-18T12:36:43;23.10;68.00
11140;DHT22;5624;49.388;11.350;2023-09-18T12:39:09;23.00;69.00
11140;DHT22;5624;49.388;11.350;2023-09-18T12:41:36;22.80;68.70
11140;DHT22;5624;49.388;11.350;2023-09-18T12:44:05;22.70;69.30
11140;DHT22;5624;49.388;11.350;2023-09-18T12:46:31;22.70;70.60
11140;DHT22;5624;49.388;11.350;2023-09-18T12:48:58;22.50;70.50
11140;DHT22;5624;49.388;11.350;2023-09-18T12:51:30;22.40;70.60
11140;DHT22;5624;49.388;11.350;2023-09-18T12:54:00;22.20;70.60
11140;DHT22;5624;49.388;11.350;2023-09-18T12:56:26;22.00;71.60
11140;DHT22;5624;49.388;11.350;2023-09-18T12:58:52;21.90;73.80
11140;DHT22;5624;49.388;11.350;2023-09-18T13:01:18;21.70;75.30
11140;DHT22;5624;49.388;11.350;2023-09-18T13:03:45;21.50;76.60
11140;DHT22;5624;49.388;11.350;2023-09-18T13:06:14;21.30;78.10
11140;DHT22;5624;49.388;11.350;2023-09-18T13:08:41;21.20;77.70
11140;DHT22;5624;49.388;11.350;2023-09-18T13:11:06;21.00;77.70
11140;DHT22;5624;49.388;11.350;2023-09-18T13:13:32;20.80;79.30
11140;DHT22;5624;49.388;11.350;2023-09-18T13:15:59;20.60;81.60
11140;DHT22;5624;49.388;11.350;2023-09-18T13:18:26;20.40;82.60
11140;DHT22;5624;49.388;11.350;2023-09-18T13:20:53;20.20;84.00
11140;DHT22;5624;49.388;11.350;2023-09-18T13:23:19;20.10;84.50
11140;DHT22;5624;49.388;11.350;2023-09-18T13:25:44;20.00;86.40
11140;DHT22;5624;49.388;11.350;2023-09-18T13:28:13;19.80;87.60
11140;DHT22;5624;49.388;11.350;2023-09-18T13:30:40;19.70;89.20
11140;DHT22;5624;49.388;11.350;2023-09-18T13:33:08;19.60;90.90
11140;DHT22;5624;49.388;11.350;2023-09-18T13:35:36;19.50;92.20
11140;DHT22;5624;49.388;11.350;2023-09-18T13:38:03;19.50;93.00
11140;DHT22;5624;49.388;11.350;2023-09-18T13:40:34;19.40;93.40
11140;DHT22;5624;49.388;11.350;2023-09-18T13:43:01;19.20;94.20
11140;DHT22;5624;49.388;11.350;2023-09-18T13:45:29;19.10;93.10
11140;DHT22;5624;49.388;11.350;2023-09-18T13:47:55;19.00;94.60
11140;DHT22;5624;49.388;11.350;2023-09-18T13:50:21;18.90;93.50
11140;DHT22;5624;49.388;11.350;2023-09-18T13:52:46;18.80;95.90
11140;DHT22;5624;49.388;11.350;2023-09-18T13:55:12;18.90;94.40
11140;DHT22;5624;49.388;11.350;2023-09-18T13:57:38;18.80;96.90
11140;DHT22;5624;49.388;11.350;2023-09-18T14:00:06;18.80;94.80
11140;DHT22;5624;49.388;11.350;2023-09-18T14:02:32;18.80;94.60
11140;DHT22;5624;49.388;11.350;2023-09-18T14:04:58;18.70;95.40
11140;DHT22;5624;49.388;11.350;2023-09-18T14:07:24;18.60;95.00
11140;DHT22;5624;49.388;11.350;2023-09-18T14:09:49;18.50;95.70
11140;DHT22;5624;49.388;11.350;2023-09-18T14:12:15;18.40;97.20
11140;DHT22;5624;49.388;11.350;2023-09-18T14:14:42;18.40;98.20
11140;DHT22;5624;49.388;11.350;2023-09-18T14:17:08;18.40;99.90
11140;DHT22;5624;49.388;11.350;2023-09-18T14:19:34;18.50;99.20
11140;DHT22;5624;49.388;11.350;2023-09-18T14:22:00;18.30;99.30
11140;DHT22;5624;49.388;11.350;2023-09-18T14:24:31;18.30;99.50
11140;DHT22;5624;49.388;11.350;2023-09-18T14:26:56;18.20;98.70
11140;DHT22;5624;49.388;11.350;2023-09-18T14:29:22;18.20;99.80
11140;DHT22;5624;49.388;11.350;2023-09-18T14:31:48;18.20;99.90
11140;DHT22;5624;49.388;11.350;2023-09-18T14:34:14;18.20;99.20
11140;DHT22;5624;49.388;11.350;2023-09-18T14:36:39;18.20;99.90
11140;DHT22;5624;49.388;11.350;2023-09-18T14:39:06;18.10;99.90
11140;DHT22;5624;49.388;11.350;2023-09-18T14:41:38;18.00;99.90
11140;DHT22;5624;49.388;11.350;2023-09-18T14:44:05;17.90;99.90
11140;DHT22;5624;49.388;11.350;2023-09-18T14:46:31;17.90;99.90
11140;DHT22;5624;49.388;11.350;2023-09-18T14:49:00;17.80;99.90
11140;DHT22;5624;49.388;11.350;2023-09-18T14:51:27;17.60;99.90
11140;DHT22;5624;49.388;11.350;2023-09-18T14:53:54;17.60;99.90
11140;DHT22;5624;49.388;11.350;2023-09-18T14:56:19;17.60;99.90
11140;DHT22;5624;49.388;11.350;2023-09-18T14:58:45;17.50;99.90
11140;DHT22;5624;49.388;11.350;2023-09-18T15:01:11;17.40;99.90
11140;DHT22;5624;49.388;11.350;2023-09-18T15:03:37;17.50;99.90
11140;DHT22;5624;49.388;11.350;2023-09-18T15:06:03;17.50;99.90
11140;DHT22;5624;49.388;11.350;2023-09-18T15:08:28;17.40;99.90
11140;DHT22;5624;49.388;11.350;2023-09-18T15:10:54;17.40;99.90
11140;DHT22;5624;49.388;11.350;2023-09-18T15:13:20;17.40;99.90
11140;DHT22;5624;49.388;11.350;2023-09-18T15:15:45;17.30;99.90
11140;DHT22;5624;49.388;11.350;2023-09-18T15:18:11;17.30;99.90
11140;DHT22;5624;49.388;11.350;2023-09-18T15:20:37;17.30;99.90
11140;DHT22;5624;49.388;11.350;2023-09-18T15:23:05;17.30;99.90
11140;DHT22;5624;49.388;11.350;2023-09-18T15:25:31;17.20;99.90
11140;DHT22;5624;49.388;11.350;2023-09-18T15:27:57;17.20;99.90
11140;DHT22;5624;49.388;11.350;2023-09-18T15:30:23;17.10;99.90
11140;DHT22;5624;49.388;11.350;2023-09-18T15:32:52;17.20;99.90
11140;DHT22;5624;49.388;11.350;2023-09-18T15:35:23;17.30;99.90
11140;DHT22;5624;49.388;11.350;2023-09-18T15:37:49;17.40;99.90
11140;DHT22;5624;49.388;11.350;2023-09-18T15:40:15;17.50;99.90
11140;DHT22;5624;49.388;11.350;2023-09-18T15:42:43;17.60;99.90
11140;DHT22;5624;49.388;11.350;2023-09-18T15:45:10;17.60;99.90
11140;DHT22;5624;49.388;11.350;2023-09-18T15:47:40;17.60;99.90
11140;DHT22;5624;49.388;11.350;2023-09-18T15:50:08;17.70;99.90
11140;DHT22;5624;49.388;11.350;2023-09-18T15:52:34;17.70;99.40